Currently 52°F in Riverside (Orangecrest), California, USA
52°F
54°F / 51°F
2 mph SW
0.00"
Tuesday, December 11, 2018 1:24 AM PST

Riverside (Orangecrest), California Weather Summary
Last 36 Hours

Temperature Winds Hourly Humidity Dewpoint
Time Report Norm Report Norm Max Gusts Precip. Rpt. Norm Rpt. Norm Pressure
1Tue 01:24 AM  51.5°F  58°F  2 mph SW  3 mph  4 mph  0.00"  60%  28%  38°F  24°F  30.08"
3Tue 01:10 AM  51.4°F  59°F  3 mph SW  3 mph  6 mph  ----  61%  28%  38°F  24°F  30.07"
Tue 01:00 AM  52.0°F  58°F  4 mph SW  3 mph  6 mph  0.00"  59%  27%  37°F  24°F  30.07"
2Tue 12:00 AM  54.4°F  58°F  2 mph SW  3 mph  4 mph  0.00"  53%  27%  37°F  23°F  30.08"
Mon 11:00 PM  55.4°F  59°F  calm  5 mph  6 mph  0.01"  47%  27%  35°F  24°F  30.09"
Mon 10:00 PM  54.8°F  60°F  4 mph SW  3 mph  6 mph  0.00"  49%  26%  35°F  24°F  30.08"
Mon 09:00 PM  56.1°F  60°F  calm  4 mph  5 mph  0.00"  43%  27%  33°F  25°F  30.06"
Mon 08:00 PM  57.7°F  61°F  calm  4 mph  6 mph  0.00"  39%  27%  32°F  25°F  30.07"
Mon 07:00 PM  58.3°F  61°F  4 mph SW  3 mph  6 mph  0.00"  41%  26%  34°F  25°F  30.07"
Mon 06:00 PM  59.0°F  62°F  calm  6 mph  6 mph  0.00"  52%  25%  41°F  25°F  30.06"
Mon 05:00 PM  60.4°F  64°F  calm  5 mph  9 mph  0.00"  44%  24%  37°F  25°F  30.06"
Mon 04:00 PM  62.4°F  66°F  7 mph SW  7 mph  12 mph  0.00"  31%  22%  30°F  25°F  30.05"
Mon 03:00 PM  64.3°F  67°F  4 mph SW  7 mph  7 mph  0.01"  30%  22%  31°F  25°F  30.07"
Mon 02:00 PM  65.0°F  68°F  2 mph SW  8 mph  10 mph  0.00"  31%  21%  32°F  24°F  30.06"
Mon 01:00 PM  65.2°F  68°F  6 mph SW  7 mph  11 mph  0.00"  28%  22%  30°F  25°F  30.07"
Mon 12:00 PM  65.8°F  66°F  1 mph SW  7 mph  13 mph  0.00"  33%  22%  34°F  25°F  30.10"
Mon 11:00 AM  63.1°F  65°F  6 mph SW  6 mph  10 mph  0.01"  32%  24%  32°F  25°F  30.13"
Mon 10:00 AM  60.3°F  63°F  4 mph SW  6 mph  7 mph  0.00"  39%  25%  34°F  25°F  30.16"
Mon 09:00 AM  56.7°F  60°F  calm  6 mph  6 mph  0.00"  45%  26%  35°F  24°F  30.16"
Mon 08:00 AM  56.6°F  58°F  3 mph SW  4 mph  5 mph  0.01"  45%  26%  35°F  22°F  30.16"
Mon 07:00 AM  54.3°F  56°F  calm  5 mph  4 mph  0.00"  54%  27%  37°F  21°F  30.15"
Mon 06:00 AM  54.4°F  56°F  2 mph SW  4 mph  9 mph  0.00"  55%  26%  38°F  20°F  30.14"
Mon 05:00 AM  55.5°F  56°F  4 mph SW  4 mph  7 mph  0.00"  52%  27%  38°F  21°F  30.14"
Mon 04:00 AM  56.4°F  56°F  5 mph SW  4 mph  9 mph  0.00"  49%  26%  37°F  21°F  30.15"
Mon 03:00 AM  56.2°F  57°F  4 mph SW  3 mph  9 mph  0.00"  48%  26%  36°F  20°F  30.16"
Mon 02:00 AM  56.0°F  57°F  5 mph SW  4 mph  11 mph  0.01"  49%  26%  36°F  21°F  30.17"
Mon 01:00 AM  56.9°F  58°F  4 mph SW  4 mph  11 mph  0.00"  48%  26%  37°F  22°F  30.19"
Mon 12:00 AM  56.5°F  58°F  7 mph SW  3 mph  11 mph  0.00"  49%  25%  37°F  21°F  30.20"
Sun 11:00 PM  55.7°F  58°F  9 mph SW  5 mph  8 mph  0.00"  51%  25%  37°F  22°F  30.22"
Sun 10:00 PM  57.7°F  59°F  6 mph SW  4 mph  11 mph  0.00"  48%  25%  37°F  22°F  30.23"
Sun 09:00 PM  56.5°F  59°F  4 mph SW  4 mph  9 mph  0.00"  53%  25%  39°F  22°F  30.23"
Sun 08:00 PM  59.3°F  60°F  4 mph SW  5 mph  8 mph  0.00"  47%  25%  38°F  22°F  30.24"
Sun 07:00 PM  59.4°F  60°F  4 mph SW  4 mph  11 mph  0.00"  46%  25%  38°F  22°F  30.24"
Sun 06:00 PM  60.6°F  61°F  6 mph SW  6 mph  12 mph  0.01"  44%  23%  38°F  22°F  30.24"
Sun 05:00 PM  61.4°F  62°F  5 mph SW  6 mph  6 mph  0.00"  44%  23%  38°F  22°F  30.23"
Sun 04:00 PM  64.3°F  65°F  4 mph SW  8 mph  12 mph  0.00"  37%  21%  36°F  23°F  30.23"
Sun 03:00 PM  65.9°F  66°F  4 mph SW  8 mph  16 mph  0.00"  34%  21%  35°F  23°F  30.24"
Sun 02:00 PM  65.7°F  66°F  10 mph SW  8 mph  19 mph  0.00"  33%  20%  34°F  23°F  30.23"

  1. Current weather data. No green row appears if the current weather data is also the high or low for the current day.
  2. High temperature for the current day.
  3. Low temperature for the current day.

The Riverside (Orangecrest), California weather pages are a service of WeatherCurrents.
Copyright ©Tue Dec 11 01:24:54 PST 2018  WeatherCurrents. All rights reserved. - Submit questions and comments - Privacy Policy

This page automatically refreshes every 10 minutes.